KDTL/DTL METAR and TAF weather

Enter ICAO airport designator
Station Type Date Time Source
KDTL METAR 2020/12/05 05:15 UTC NOAA

KDTL 050515Z AUTO 00000KT 10SM FEW014 SCT020 BKN031 M04/M05 A3008 RMK AO2


Station Type Date Time Source
KDTL Decoded METAR 2020/12/05 05:15 UTC NOAA

Detroit Lakes, Detroit Lakes Airport-Wething Field, MN, United States (KDTL) 46-50N 095-53W
Dec 05, 2020 - 12:15 AM EST / 2020.12.05 0515 UTC
Wind: Calm:0
Visibility: 10 mile(s):0
Sky conditions: mostly cloudy
Temperature: 24 F (-4 C)
Dew Point: 23 F (-5 C)
Relative Humidity: 92%
Pressure (altimeter): 30.08 in. Hg (1018 hPa)
ob: KDTL 050515Z AUTO 00000KT 10SM FEW014 SCT020 BKN031 M04/M05 A3008 RMK AO2
cycle: 5

Station Type Date Time Source
KDTL TAF UTC NOAA

Error!

Example: see airport list